createdAt,value
2017-05-22T00:01:29.134Z,16.75
2017-05-22T00:04:23.918Z,16.74
2017-05-22T00:07:18.672Z,16.73
2017-05-22T00:10:13.318Z,16.71
2017-05-22T00:13:07.859Z,16.68
2017-05-22T00:16:02.585Z,16.67
2017-05-22T00:18:57.236Z,16.67
2017-05-22T00:21:51.873Z,16.66
2017-05-22T00:24:46.553Z,16.65
2017-05-22T00:27:41.240Z,16.63
2017-05-22T00:30:35.996Z,16.61
2017-05-22T00:33:30.698Z,16.59
2017-05-22T00:36:25.418Z,16.56
2017-05-22T00:39:19.953Z,16.54
2017-05-22T00:42:14.479Z,16.53
2017-05-22T00:45:09.214Z,16.51
2017-05-22T00:48:04.003Z,16.49
2017-05-22T00:50:58.786Z,16.50
2017-05-22T00:53:53.385Z,16.48
2017-05-22T00:56:48.237Z,16.48
2017-05-22T00:59:42.879Z,16.46
2017-05-22T01:02:37.578Z,16.46
2017-05-22T01:05:32.248Z,16.44
2017-05-22T01:08:26.998Z,16.44
2017-05-22T01:11:21.691Z,16.43
2017-05-22T01:14:16.293Z,16.41
2017-05-22T01:17:10.933Z,16.39
2017-05-22T01:20:05.607Z,16.40
2017-05-22T01:23:00.232Z,16.37
2017-05-22T01:25:54.878Z,16.35
2017-05-22T01:28:49.551Z,16.32
2017-05-22T01:31:44.087Z,16.32
2017-05-22T01:34:38.690Z,16.30
2017-05-22T01:37:33.203Z,16.28
2017-05-22T01:40:27.832Z,16.25
2017-05-22T01:43:22.547Z,16.24
2017-05-22T01:46:17.164Z,16.24
2017-05-22T01:49:11.832Z,16.24
2017-05-22T01:52:06.395Z,16.21
2017-05-22T01:55:01.057Z,16.19
2017-05-22T01:57:55.689Z,16.18
2017-05-22T02:00:50.381Z,16.17
2017-05-22T02:03:45.149Z,16.14
2017-05-22T02:06:39.829Z,16.09
2017-05-22T02:09:34.397Z,16.08
2017-05-22T02:12:28.919Z,16.06
2017-05-22T02:15:23.449Z,15.99
2017-05-22T02:21:12.694Z,15.91
2017-05-22T02:24:07.226Z,15.91
2017-05-22T02:27:01.743Z,15.89
2017-05-22T02:29:56.470Z,15.86
2017-05-22T02:32:51.131Z,15.83
2017-05-22T02:35:45.667Z,15.79
2017-05-22T02:38:40.407Z,15.73
2017-05-22T02:41:35.101Z,15.70
2017-05-22T02:44:29.676Z,15.68
2017-05-22T02:47:24.304Z,15.68
2017-05-22T02:50:18.827Z,15.67
2017-05-22T02:53:13.355Z,15.65
2017-05-22T02:56:07.973Z,15.63
2017-05-22T02:59:02.582Z,15.60
2017-05-22T03:01:57.048Z,15.57
2017-05-22T03:04:51.522Z,15.51
2017-05-22T03:07:46.396Z,15.49
2017-05-22T03:10:40.929Z,15.47
2017-05-22T03:13:35.496Z,15.43
2017-05-22T03:16:29.928Z,15.40
2017-05-22T03:19:24.360Z,15.39
2017-05-22T03:22:18.902Z,15.38
2017-05-22T03:25:13.460Z,15.36
2017-05-22T03:31:02.389Z,15.35
2017-05-22T03:33:56.962Z,15.31
2017-05-22T03:36:51.421Z,15.29
2017-05-22T03:39:45.919Z,15.29
2017-05-22T03:42:40.345Z,15.28
2017-05-22T03:45:34.858Z,15.24
2017-05-22T03:48:29.348Z,15.22
2017-05-22T03:51:23.861Z,15.24
2017-05-22T03:54:18.264Z,15.22
2017-05-22T03:57:12.746Z,15.20
2017-05-22T04:00:07.141Z,15.18
2017-05-22T04:08:50.821Z,15.16
2017-05-22T04:11:45.280Z,15.14
2017-05-22T04:14:39.805Z,15.13
2017-05-22T04:17:34.419Z,15.15
2017-05-22T04:20:29.483Z,15.15
2017-05-22T04:23:23.888Z,15.19
2017-05-22T04:26:18.400Z,15.19
2017-05-22T04:29:12.827Z,15.21
2017-05-22T04:32:07.353Z,15.21
2017-05-22T04:35:01.931Z,15.25
2017-05-22T04:37:56.410Z,15.28
2017-05-22T04:40:50.913Z,15.31
2017-05-22T04:49:34.698Z,15.35
2017-05-22T04:55:23.852Z,15.47
2017-05-22T04:58:18.431Z,15.56
2017-05-22T05:01:12.968Z,15.67
2017-05-22T05:04:07.547Z,15.78
2017-05-22T05:07:02.219Z,15.91
2017-05-22T05:09:56.670Z,16.07
2017-05-22T05:12:51.371Z,16.21
2017-05-22T05:15:45.920Z,16.38
2017-05-22T05:21:35.153Z,16.64
2017-05-22T05:24:29.770Z,16.75
2017-05-22T05:27:24.427Z,16.83
2017-05-22T05:30:19.046Z,16.94
2017-05-22T05:33:13.639Z,17.06
2017-05-22T05:36:08.314Z,17.15
2017-05-22T05:39:02.793Z,17.26
2017-05-22T05:41:57.381Z,17.37
2017-05-22T05:44:52.015Z,17.46
2017-05-22T05:47:46.723Z,17.54
2017-05-22T05:50:41.723Z,17.64
2017-05-22T05:53:36.454Z,17.69
2017-05-22T05:56:31.187Z,17.79
2017-05-22T05:59:25.816Z,17.86
2017-05-22T06:02:20.549Z,17.94
2017-05-22T06:05:15.200Z,18.02
2017-05-22T06:08:10.442Z,18.11
2017-05-22T06:11:05.291Z,18.21
2017-05-22T06:13:59.957Z,18.29
2017-05-22T06:16:54.649Z,18.38
2017-05-22T06:19:49.304Z,18.45
2017-05-22T06:22:43.949Z,18.52
2017-05-22T06:25:38.637Z,18.57
2017-05-22T06:28:33.371Z,18.63
2017-05-22T06:31:28.043Z,18.71
2017-05-22T06:34:22.668Z,18.80
2017-05-22T06:37:17.410Z,18.89
2017-05-22T06:40:12.130Z,18.96
2017-05-22T06:43:06.910Z,19.02
2017-05-22T06:46:01.768Z,19.08
2017-05-22T06:48:56.562Z,19.15
2017-05-22T06:51:51.429Z,19.24
2017-05-22T06:54:46.248Z,19.35
2017-05-22T06:57:41.162Z,19.46
2017-05-22T07:00:35.967Z,19.56
2017-05-22T07:03:30.851Z,19.70
2017-05-22T07:06:25.619Z,19.82
2017-05-22T07:09:20.492Z,19.95
2017-05-22T07:12:15.388Z,20.06
2017-05-22T07:15:10.234Z,20.18
2017-05-22T07:18:05.016Z,20.31
2017-05-22T07:20:59.983Z,20.46
2017-05-22T07:23:54.960Z,20.60
2017-05-22T07:26:49.872Z,20.73
2017-05-22T07:29:44.825Z,20.86
2017-05-22T07:35:34.661Z,21.07
2017-05-22T07:38:29.723Z,21.19
2017-05-22T07:41:24.698Z,21.31
2017-05-22T07:44:19.678Z,21.43
2017-05-22T07:47:14.539Z,21.56
2017-05-22T07:50:09.535Z,21.67
2017-05-22T07:53:04.533Z,21.79
2017-05-22T07:55:59.637Z,21.89
2017-05-22T07:58:54.675Z,21.99
2017-05-22T08:01:49.739Z,22.10
2017-05-22T08:04:44.710Z,22.23
2017-05-22T08:07:39.751Z,22.37
2017-05-22T08:10:34.797Z,22.47
2017-05-22T08:13:29.897Z,22.59
2017-05-22T08:16:24.954Z,22.72
2017-05-22T08:19:20.104Z,22.84
2017-05-22T08:22:15.211Z,22.95
2017-05-22T08:25:10.316Z,23.09
2017-05-22T08:28:05.523Z,23.23
2017-05-22T08:31:00.781Z,23.39
2017-05-22T08:33:55.993Z,23.52
2017-05-22T08:36:51.166Z,23.63
2017-05-22T08:39:46.330Z,23.74
2017-05-22T08:42:41.592Z,23.80
2017-05-22T08:45:36.872Z,23.88
2017-05-22T08:48:32.098Z,23.99
2017-05-22T08:51:27.276Z,24.12
2017-05-22T08:54:22.492Z,24.27
2017-05-22T08:57:17.784Z,24.42
2017-05-22T09:03:08.280Z,24.76
2017-05-22T09:06:03.650Z,24.93
2017-05-22T09:08:58.988Z,25.07
2017-05-22T09:11:54.212Z,25.25
2017-05-22T09:14:49.650Z,25.41
2017-05-22T09:17:44.966Z,25.56
2017-05-22T09:20:40.425Z,25.73
2017-05-22T09:23:35.912Z,25.93
2017-05-22T09:26:31.363Z,26.13
2017-05-22T09:29:26.675Z,26.42
2017-05-22T09:35:17.783Z,26.85
2017-05-22T09:38:12.967Z,27.05
2017-05-22T09:41:08.550Z,27.24
2017-05-22T09:44:04.040Z,27.52
2017-05-22T09:46:59.570Z,27.72
2017-05-22T09:49:55.002Z,27.72
2017-05-22T09:52:50.433Z,27.83
2017-05-22T09:55:45.952Z,27.91
2017-05-22T09:58:41.429Z,28.03
2017-05-22T10:01:36.898Z,28.19
2017-05-22T10:04:32.474Z,28.43
2017-05-22T10:07:27.962Z,28.61
2017-05-22T10:10:23.496Z,28.67
2017-05-22T10:13:19.014Z,28.68
2017-05-22T10:16:14.492Z,28.55
2017-05-22T10:19:09.959Z,28.61
2017-05-22T10:22:05.245Z,28.60
2017-05-22T10:25:00.696Z,28.65
2017-05-22T10:27:56.078Z,28.82
2017-05-22T10:30:51.502Z,28.98
2017-05-22T10:33:46.928Z,29.13
2017-05-22T10:36:42.358Z,29.16
2017-05-22T10:39:37.671Z,29.16
2017-05-22T10:42:33.009Z,29.20
2017-05-22T10:45:28.374Z,29.13
2017-05-22T10:48:23.811Z,28.96
2017-05-22T10:54:14.428Z,28.46
2017-05-22T11:00:04.979Z,27.92
2017-05-22T11:03:00.302Z,27.58
2017-05-22T11:05:55.554Z,27.35
2017-05-22T11:08:50.748Z,27.09
2017-05-22T11:11:45.905Z,26.88
2017-05-22T11:14:41.191Z,26.67
2017-05-22T11:17:36.453Z,26.45
2017-05-22T11:20:31.566Z,26.27
2017-05-22T11:23:26.849Z,26.05
2017-05-22T11:26:22.106Z,25.92
2017-05-22T11:29:17.286Z,25.85
2017-05-22T11:32:12.543Z,25.79
2017-05-22T11:35:07.909Z,25.72
2017-05-22T11:38:03.125Z,25.62
2017-05-22T11:40:58.292Z,25.52
2017-05-22T11:43:53.551Z,25.46
2017-05-22T11:46:48.864Z,25.39
2017-05-22T11:49:44.165Z,25.31
2017-05-22T11:52:39.423Z,25.22
2017-05-22T11:55:34.566Z,25.13
2017-05-22T11:58:29.831Z,25.04
2017-05-22T12:01:25.049Z,24.99
2017-05-22T12:04:20.304Z,24.97
2017-05-22T12:07:15.567Z,24.96
2017-05-22T12:10:10.822Z,24.92
2017-05-22T12:13:06.020Z,24.89
2017-05-22T12:16:01.248Z,24.84
2017-05-22T12:18:56.560Z,24.80
2017-05-22T12:21:51.780Z,24.78
2017-05-22T12:24:46.953Z,24.73
2017-05-22T12:27:42.302Z,24.71
2017-05-22T12:30:37.727Z,24.70
2017-05-22T12:33:32.850Z,24.69
2017-05-22T12:36:28.094Z,24.69
2017-05-22T12:39:23.281Z,24.65
2017-05-22T12:42:18.416Z,24.64
2017-05-22T12:45:13.706Z,24.61
2017-05-22T12:48:08.949Z,24.60
2017-05-22T12:51:04.269Z,24.59
2017-05-22T12:53:59.473Z,24.54
2017-05-22T12:56:54.619Z,24.50
2017-05-22T12:59:49.786Z,24.44
2017-05-22T13:02:45.004Z,24.40
2017-05-22T13:05:40.221Z,24.39
2017-05-22T13:08:35.358Z,24.38
2017-05-22T13:11:30.581Z,24.38
2017-05-22T13:14:25.802Z,24.38
2017-05-22T13:17:21.039Z,24.38
2017-05-22T13:20:16.276Z,24.38
2017-05-22T13:23:11.497Z,24.36
2017-05-22T13:26:06.654Z,24.34
2017-05-22T13:29:01.920Z,24.28
2017-05-22T13:31:57.185Z,24.22
2017-05-22T13:34:52.427Z,24.20
2017-05-22T13:37:47.624Z,24.21
2017-05-22T13:40:42.879Z,24.21
2017-05-22T13:43:38.023Z,24.23
2017-05-22T13:46:33.225Z,24.24
2017-05-22T13:49:28.483Z,24.23
2017-05-22T13:52:23.719Z,24.23
2017-05-22T13:55:19.057Z,24.22
2017-05-22T13:58:14.240Z,24.18
2017-05-22T14:01:09.508Z,24.16
2017-05-22T14:04:04.714Z,24.13
2017-05-22T14:06:59.972Z,24.11
2017-05-22T14:09:55.190Z,24.12
2017-05-22T14:12:50.599Z,24.14
2017-05-22T14:15:45.841Z,24.13
2017-05-22T14:18:41.179Z,24.13
2017-05-22T14:21:36.353Z,24.15
2017-05-22T14:24:31.601Z,24.16
2017-05-22T14:27:26.864Z,24.18
2017-05-22T14:30:22.003Z,24.19
2017-05-22T14:33:17.202Z,24.20
2017-05-22T14:36:12.582Z,24.21
2017-05-22T14:39:07.727Z,24.21
2017-05-22T14:42:02.892Z,24.21
2017-05-22T14:44:58.132Z,24.20
2017-05-22T14:47:53.367Z,24.19
2017-05-22T14:50:48.509Z,24.18
2017-05-22T14:53:43.711Z,24.20
2017-05-22T14:56:38.888Z,24.22
2017-05-22T14:59:34.082Z,24.23
2017-05-22T15:02:29.327Z,24.25
2017-05-22T15:05:24.465Z,24.25
2017-05-22T15:08:19.724Z,24.24
2017-05-22T15:11:14.854Z,24.22
2017-05-22T15:14:10.082Z,24.22
2017-05-22T15:17:05.327Z,24.23
2017-05-22T15:20:00.597Z,24.24
2017-05-22T15:22:55.877Z,24.24
2017-05-22T15:25:51.087Z,24.22
2017-05-22T15:28:46.315Z,24.21
2017-05-22T15:31:41.585Z,24.19
2017-05-22T15:34:36.767Z,24.18
2017-05-22T15:37:31.999Z,24.18
2017-05-22T15:40:27.131Z,24.16
2017-05-22T15:43:22.400Z,24.15
2017-05-22T15:46:17.575Z,24.14
2017-05-22T15:49:12.734Z,24.12
2017-05-22T15:52:07.954Z,24.10
2017-05-22T15:55:03.179Z,24.09
2017-05-22T15:57:58.277Z,24.10
2017-05-22T16:00:53.407Z,24.11
2017-05-22T16:03:48.544Z,24.10
2017-05-22T16:06:43.782Z,24.11
2017-05-22T16:09:38.999Z,24.11
2017-05-22T16:12:34.174Z,24.09
2017-05-22T16:15:29.430Z,24.09
2017-05-22T16:18:24.829Z,24.08
2017-05-22T16:21:20.075Z,24.09
2017-05-22T16:24:15.173Z,24.09
2017-05-22T16:27:10.403Z,24.09
2017-05-22T16:30:05.514Z,24.09
2017-05-22T16:33:00.687Z,24.08
2017-05-22T16:35:55.932Z,24.09
2017-05-22T16:38:51.125Z,24.08
2017-05-22T16:41:46.324Z,24.09
2017-05-22T16:44:41.564Z,24.10
2017-05-22T16:47:36.692Z,24.10
2017-05-22T16:50:31.931Z,24.09
2017-05-22T16:53:27.135Z,24.09
2017-05-22T16:56:22.332Z,24.09
2017-05-22T16:59:17.398Z,24.08
2017-05-22T17:02:12.571Z,24.06
2017-05-22T17:05:07.764Z,24.06
2017-05-22T17:08:02.977Z,24.05
2017-05-22T17:10:58.197Z,24.05
2017-05-22T17:13:53.310Z,24.04
2017-05-22T17:16:48.429Z,24.03
2017-05-22T17:19:43.499Z,24.03
2017-05-22T17:22:38.702Z,24.03
2017-05-22T17:28:29.029Z,23.83
2017-05-22T17:31:23.939Z,23.63
2017-05-22T17:34:18.938Z,23.43
2017-05-22T17:37:13.916Z,23.27
2017-05-22T17:40:09.223Z,23.15
2017-05-22T17:43:04.223Z,23.03
2017-05-22T17:45:59.225Z,22.94
2017-05-22T17:48:54.151Z,22.86
2017-05-22T17:51:49.182Z,22.78
2017-05-22T17:54:44.249Z,22.71
2017-05-22T17:57:39.321Z,22.67
2017-05-22T18:00:34.312Z,22.64
2017-05-22T18:03:29.311Z,22.61
2017-05-22T18:06:24.384Z,22.60
2017-05-22T18:09:19.493Z,22.59
2017-05-22T18:12:14.488Z,22.56
2017-05-22T18:15:09.455Z,22.55
2017-05-22T18:18:04.415Z,22.53
2017-05-22T18:23:54.690Z,22.49
2017-05-22T18:26:49.725Z,22.48
2017-05-22T18:29:44.873Z,22.48
2017-05-22T18:32:39.784Z,22.47
2017-05-22T18:35:34.857Z,22.46
2017-05-22T18:38:29.931Z,22.45
2017-05-22T18:41:24.942Z,22.44
2017-05-22T18:44:20.026Z,22.44
2017-05-22T18:47:14.973Z,22.44
2017-05-22T18:50:10.044Z,22.43
2017-05-22T18:53:05.217Z,22.41
2017-05-22T18:56:00.166Z,22.37
2017-05-22T18:58:55.240Z,22.35
2017-05-22T19:01:50.283Z,22.32
2017-05-22T19:04:45.197Z,22.30
2017-05-22T19:07:40.220Z,22.27
2017-05-22T19:10:35.141Z,22.24
2017-05-22T19:13:30.156Z,22.19
2017-05-22T19:16:25.182Z,22.15
2017-05-22T19:19:20.162Z,22.11
2017-05-22T19:22:15.273Z,22.06
2017-05-22T19:25:10.395Z,21.99
2017-05-22T19:28:05.440Z,21.95
2017-05-22T19:31:00.496Z,21.90
2017-05-22T19:33:55.477Z,21.86
2017-05-22T19:36:50.368Z,21.82
2017-05-22T19:39:45.356Z,21.77
2017-05-22T19:42:40.387Z,21.72
2017-05-22T19:45:35.359Z,21.66
2017-05-22T19:48:30.308Z,21.60
2017-05-22T19:51:25.313Z,21.53
2017-05-22T19:57:15.157Z,21.42
2017-05-22T20:00:10.147Z,21.35
2017-05-22T20:03:05.217Z,21.29
2017-05-22T20:06:00.047Z,21.25
2017-05-22T20:08:54.910Z,21.19
2017-05-22T20:11:49.803Z,21.14
2017-05-22T20:14:44.752Z,21.06
2017-05-22T20:17:39.695Z,21.01
2017-05-22T20:20:34.580Z,20.97
2017-05-22T20:23:29.464Z,20.93
2017-05-22T20:26:24.223Z,20.87
2017-05-22T20:29:19.064Z,20.84
2017-05-22T20:32:13.946Z,20.79
2017-05-22T20:35:08.918Z,20.71
2017-05-22T20:38:03.975Z,20.66
2017-05-22T20:40:58.879Z,20.59
2017-05-22T20:43:53.828Z,20.53
2017-05-22T20:46:48.798Z,20.48
2017-05-22T20:49:43.893Z,20.42
2017-05-22T20:52:38.601Z,20.36
2017-05-22T20:55:33.467Z,20.32
2017-05-22T20:58:28.358Z,20.27
2017-05-22T21:01:23.296Z,20.22
2017-05-22T21:04:18.171Z,20.16
2017-05-22T21:10:08.060Z,20.04
2017-05-22T21:13:02.952Z,19.99
2017-05-22T21:15:57.825Z,19.95
2017-05-22T21:18:52.646Z,19.91
2017-05-22T21:21:47.548Z,19.86
2017-05-22T21:24:42.378Z,19.81
2017-05-22T21:27:37.180Z,19.77
2017-05-22T21:30:32.019Z,19.74
2017-05-22T21:33:26.914Z,19.73
2017-05-22T21:36:21.840Z,19.68
2017-05-22T21:39:16.510Z,19.64
2017-05-22T21:42:11.291Z,19.58
2017-05-22T21:45:06.221Z,19.55
2017-05-22T21:48:01.044Z,19.52
2017-05-22T21:53:50.764Z,19.43
2017-05-22T21:56:45.630Z,19.40
2017-05-22T21:59:40.471Z,19.36
2017-05-22T22:02:35.497Z,19.33
2017-05-22T22:05:30.418Z,19.30
2017-05-22T22:08:25.281Z,19.28
2017-05-22T22:11:20.111Z,19.25
2017-05-22T22:20:04.636Z,19.13
2017-05-22T22:22:59.496Z,19.11
2017-05-22T22:25:54.301Z,19.08
2017-05-22T22:28:49.163Z,19.05
2017-05-22T22:31:43.927Z,19.01
2017-05-22T22:34:38.769Z,18.95
2017-05-22T22:40:28.405Z,18.90
2017-05-22T22:43:23.317Z,18.87
2017-05-22T22:46:18.128Z,18.85
2017-05-22T22:49:12.881Z,18.82
2017-05-22T22:52:07.639Z,18.78
2017-05-22T22:55:02.506Z,18.75
2017-05-22T22:57:57.244Z,18.73
2017-05-22T23:00:52.130Z,18.71
2017-05-22T23:03:47.027Z,18.68
2017-05-22T23:06:41.760Z,18.64
2017-05-22T23:09:36.615Z,18.60
2017-05-22T23:12:31.485Z,18.56
2017-05-22T23:15:26.220Z,18.54
2017-05-22T23:18:21.043Z,18.51
2017-05-22T23:21:15.842Z,18.49
2017-05-22T23:24:10.539Z,18.46
2017-05-22T23:27:05.339Z,18.43
2017-05-22T23:30:00.035Z,18.40
2017-05-22T23:32:54.702Z,18.36
2017-05-22T23:35:49.446Z,18.33
2017-05-22T23:38:44.138Z,18.29
2017-05-22T23:44:33.718Z,18.20
2017-05-22T23:47:28.422Z,18.20
2017-05-22T23:50:23.206Z,18.18
2017-05-22T23:53:18.061Z,18.16
2017-05-22T23:56:13.278Z,18.14
2017-05-22T23:59:07.973Z,18.10
